Time;durP1;ratioP1;P1;durP2;ratioP2;P2;SDS_P1;SDS_P2;PMS_P1;PMS_P2;Temp;Humidity;BMP_temperature;BMP_pressure;BME280_temperature;BME280_humidity;BME280_pressure;Samples;Min_cycle;Max_cycle;Signal;HPM_P1;HPM_P2
2022/06/28 00:01:17;;;;;;;0.00;0.00;;;17.50;99.90;;;;;;4965476;28;20982;-78
2022/06/28 00:03:45;;;;;;;0.00;0.00;;;17.50;99.90;;;;;;4964328;28;20454;-77
2022/06/28 00:06:13;;;;;;;0.00;0.00;;;17.50;99.90;;;;;;4965132;28;21004;-77
2022/06/28 00:08:40;;;;;;;0.00;0.00;;;17.50;99.90;;;;;;4968974;28;20453;-77
2022/06/28 00:11:08;;;;;;;0.00;0.00;;;17.60;99.90;;;;;;4966807;28;20849;-77
2022/06/28 00:13:37;;;;;;;0.00;0.00;;;17.60;99.90;;;;;;4966184;28;20485;-78
2022/06/28 00:16:04;;;;;;;0.00;0.00;;;17.60;99.90;;;;;;4964606;28;20653;-76
2022/06/28 00:18:33;;;;;;;0.00;0.00;;;17.60;99.90;;;;;;4963609;28;20501;-75
2022/06/28 00:21:02;;;;;;;0.00;0.00;;;17.60;99.90;;;;;;4963827;28;21040;-77
2022/06/28 00:23:45;;;;;;;0.00;0.00;;;17.60;99.90;;;;;;4978317;28;20450;-77
2022/06/28 00:26:13;;;;;;;0.00;0.00;;;17.70;99.90;;;;;;4967788;28;20764;-75
2022/06/28 00:28:45;;;;;;;0.00;0.00;;;17.70;99.90;;;;;;4962903;28;20450;-77
2022/06/28 00:31:13;;;;;;;0.00;0.00;;;17.70;99.90;;;;;;4963556;28;20776;-75
2022/06/28 00:33:41;;;;;;;0.00;0.00;;;17.60;99.90;;;;;;4970350;28;21016;-79
2022/06/28 00:36:08;;;;;;;0.00;0.00;;;17.60;99.90;;;;;;4970250;28;20464;-78
2022/06/28 00:38:39;;;;;;;0.00;0.00;;;17.60;99.90;;;;;;4975177;28;20473;-76
2022/06/28 00:41:07;;;;;;;0.00;0.00;;;17.60;99.90;;;;;;4974142;28;20457;-76
2022/06/28 00:43:35;;;;;;;0.00;0.00;;;17.50;99.90;;;;;;4975357;28;20513;-77
2022/06/28 00:46:05;;;;;;;0.00;0.00;;;17.50;99.90;;;;;;4972102;28;20455;-78
2022/06/28 00:48:33;;;;;;;0.00;0.00;;;17.50;99.90;;;;;;4965904;28;20593;-77
2022/06/28 00:51:02;;;;;;;0.00;0.00;;;17.50;99.90;;;;;;4963108;28;21112;-77
2022/06/28 00:53:30;;;;;;;0.00;0.00;;;17.40;99.90;;;;;;4964709;28;20488;-77
2022/06/28 00:55:57;;;;;;;0.00;0.00;;;17.40;99.90;;;;;;4963833;28;20521;-76
2022/06/28 00:58:25;;;;;;;0.00;0.00;;;17.40;99.90;;;;;;4964710;28;20461;-78
2022/06/28 01:00:54;;;;;;;0.00;0.00;;;17.40;99.90;;;;;;4965381;28;20468;-78
2022/06/28 01:03:25;;;;;;;0.00;0.00;;;17.40;99.90;;;;;;4966794;28;20459;-77
2022/06/28 01:05:54;;;;;;;0.00;0.00;;;17.40;99.90;;;;;;4963784;28;20853;-76
2022/06/28 01:09:17;;;;;;;0.00;0.00;;;17.40;99.90;;;;;;4967248;28;20457;-76
2022/06/28 01:11:46;;;;;;;0.00;0.00;;;17.40;99.90;;;;;;4965010;28;20713;-77
2022/06/28 01:17:56;;;;;;;0.00;0.00;;;17.40;99.90;;;;;;4964301;28;20488;-76
2022/06/28 01:20:25;;;;;;;0.00;0.00;;;17.40;99.90;;;;;;4961538;28;20483;-76
2022/06/28 01:23:01;;;;;;;0.00;0.00;;;17.30;99.90;;;;;;4962366;28;20448;-77
2022/06/28 01:28:54;;;;;;;0.00;0.00;;;17.30;99.90;;;;;;4961452;28;20462;-77
2022/06/28 01:31:23;;;;;;;0.00;0.00;;;17.20;99.90;;;;;;4960137;28;20461;-76
2022/06/28 01:33:52;;;;;;;0.00;0.00;;;17.10;99.90;;;;;;4971405;28;20484;-77
2022/06/28 01:36:21;;;;;;;0.00;0.00;;;17.00;99.90;;;;;;4962814;28;20469;-78
2022/06/28 01:38:50;;;;;;;0.00;0.00;;;17.00;99.90;;;;;;4962252;28;20455;-76
2022/06/28 01:44:02;;;;;;;0.00;0.00;;;16.80;99.90;;;;;;4960408;28;20600;-76
2022/06/28 01:46:30;;;;;;;0.00;0.00;;;16.80;99.90;;;;;;4960482;28;20479;-75
2022/06/28 01:48:58;;;;;;;0.00;0.00;;;16.70;99.90;;;;;;4960187;28;20472;-74
2022/06/28 01:51:26;;;;;;;0.00;0.00;;;16.70;99.90;;;;;;4959897;28;20468;-76
2022/06/28 01:53:55;;;;;;;0.00;0.00;;;16.60;99.90;;;;;;4960036;28;21068;-76
2022/06/28 01:56:23;;;;;;;0.00;0.00;;;16.60;99.90;;;;;;4962245;28;20464;-76
2022/06/28 01:58:51;;;;;;;0.00;0.00;;;16.60;99.90;;;;;;4960012;28;20762;-75
2022/06/28 02:01:18;;;;;;;0.00;0.00;;;16.60;99.90;;;;;;4960590;28;20454;-75
2022/06/28 02:03:46;;;;;;;0.00;0.00;;;16.70;99.90;;;;;;4960707;28;20804;-77
2022/06/28 02:06:14;;;;;;;0.00;0.00;;;16.70;99.90;;;;;;4961600;28;20519;-77
2022/06/28 02:08:42;;;;;;;0.00;0.00;;;16.70;99.90;;;;;;4960672;28;20920;-77
2022/06/28 02:11:11;;;;;;;0.00;0.00;;;16.70;99.90;;;;;;4960628;28;20455;-75
2022/06/28 02:13:39;;;;;;;0.00;0.00;;;16.80;99.90;;;;;;4962215;28;20608;-77
2022/06/28 02:16:07;;;;;;;0.00;0.00;;;16.80;99.90;;;;;;4960378;28;20470;-75
2022/06/28 02:21:56;;;;;;;0.00;0.00;;;16.90;99.90;;;;;;5860806;23;20495;-79
2022/06/28 02:24:24;;;;;;;0.00;0.00;;;16.90;99.90;;;;;;4977844;28;20505;-75
2022/06/28 02:26:53;;;;;;;0.00;0.00;;;16.90;99.90;;;;;;4978722;28;20627;-71
2022/06/28 02:29:21;;;;;;;0.00;0.00;;;16.90;99.90;;;;;;4982902;28;20498;-78
2022/06/28 02:31:49;;;;;;;0.00;0.00;;;16.90;99.90;;;;;;4985132;28;20458;-78
2022/06/28 02:42:31;;;;;;;0.00;0.00;;;16.80;99.90;;;;;;4979616;28;20878;-77
2022/06/28 02:44:59;;;;;;;0.00;0.00;;;16.70;99.90;;;;;;4979138;28;20438;-77
2022/06/28 02:47:27;;;;;;;0.00;0.00;;;16.60;99.90;;;;;;4978864;28;20485;-77
2022/06/28 02:49:54;;;;;;;0.00;0.00;;;16.60;99.90;;;;;;4979382;28;20440;-76
2022/06/28 02:52:22;;;;;;;0.00;0.00;;;16.70;99.90;;;;;;4979510;28;20662;-76
2022/06/28 02:54:50;;;;;;;0.00;0.00;;;16.80;99.90;;;;;;4978491;28;20481;-70
2022/06/28 02:57:18;;;;;;;0.00;0.00;;;16.80;99.90;;;;;;4975907;28;20476;-76
2022/06/28 02:59:47;;;;;;;0.00;0.00;;;16.80;99.90;;;;;;4961148;28;20857;-72
2022/06/28 03:02:15;;;;;;;0.00;0.00;;;16.80;99.90;;;;;;4958198;28;20471;-70
2022/06/28 03:04:43;;;;;;;0.00;0.00;;;16.80;99.90;;;;;;4957643;28;20450;-72
2022/06/28 03:07:11;;;;;;;0.00;0.00;;;16.80;99.90;;;;;;4958783;28;20743;-73
2022/06/28 03:09:39;;;;;;;0.00;0.00;;;16.80;99.90;;;;;;4959377;28;20450;-76
2022/06/28 03:12:08;;;;;;;0.00;0.00;;;16.90;99.90;;;;;;4960346;28;20439;-77
2022/06/28 03:14:36;;;;;;;0.00;0.00;;;16.90;99.90;;;;;;4962626;28;20517;-76
2022/06/28 03:17:05;;;;;;;0.00;0.00;;;16.90;99.90;;;;;;4962951;28;20549;-77
2022/06/28 03:19:33;;;;;;;0.00;0.00;;;16.90;99.90;;;;;;4962549;28;20475;-76
2022/06/28 03:22:01;;;;;;;0.00;0.00;;;16.80;99.90;;;;;;4962742;28;20719;-76
2022/06/28 03:24:29;;;;;;;0.00;0.00;;;16.80;99.90;;;;;;4964080;28;21000;-79
2022/06/28 03:26:57;;;;;;;0.00;0.00;;;16.70;99.90;;;;;;4965082;28;20470;-78
2022/06/28 03:29:24;;;;;;;0.00;0.00;;;16.70;99.90;;;;;;4965398;28;20441;-73
2022/06/28 03:31:52;;;;;;;0.00;0.00;;;16.60;99.90;;;;;;4962130;28;20444;-73
2022/06/28 03:34:22;;;;;;;0.00;0.00;;;16.50;99.90;;;;;;4961982;28;20576;-72
2022/06/28 03:36:50;;;;;;;0.00;0.00;;;16.50;99.90;;;;;;4962412;28;20464;-73
2022/06/28 03:39:18;;;;;;;0.00;0.00;;;16.40;99.90;;;;;;4962062;28;20739;-72
2022/06/28 03:41:46;;;;;;;0.00;0.00;;;16.40;99.90;;;;;;4962380;28;20446;-71
2022/06/28 03:44:14;;;;;;;0.00;0.00;;;16.50;99.90;;;;;;4962173;28;20720;-71
2022/06/28 03:46:41;;;;;;;0.00;0.00;;;16.60;99.90;;;;;;4965002;28;20827;-79
2022/06/28 03:49:09;;;;;;;0.00;0.00;;;16.70;99.90;;;;;;4966819;28;20449;-74
2022/06/28 03:51:38;;;;;;;0.00;0.00;;;16.80;99.90;;;;;;4961963;28;20458;-73
2022/06/28 03:54:09;;;;;;;0.00;0.00;;;16.90;99.90;;;;;;4961824;28;21107;-72
2022/06/28 03:56:37;;;;;;;0.00;0.00;;;17.00;99.90;;;;;;4962087;28;20849;-72
2022/06/28 03:59:05;;;;;;;0.00;0.00;;;17.00;99.90;;;;;;4966120;28;20447;-79
2022/06/28 04:01:33;;;;;;;0.00;0.00;;;17.10;99.90;;;;;;4962119;28;20687;-76
2022/06/28 04:04:00;;;;;;;0.00;0.00;;;17.10;99.90;;;;;;4962685;28;20445;-73
2022/06/28 04:06:28;;;;;;;0.00;0.00;;;17.10;99.90;;;;;;4961495;28;20837;-72
2022/06/28 04:08:58;;;;;;;0.00;0.00;;;17.10;99.90;;;;;;4961855;28;20459;-71
2022/06/28 04:11:25;;;;;;;0.00;0.00;;;17.20;99.90;;;;;;4973441;28;20444;-71
2022/06/28 04:13:54;;;;;;;0.00;0.00;;;17.20;99.90;;;;;;4982045;28;20577;-72
2022/06/28 04:16:23;;;;;;;0.00;0.00;;;17.30;99.90;;;;;;4981098;28;20625;-70
2022/06/28 04:18:52;;;;;;;0.00;0.00;;;17.40;99.90;;;;;;4980404;28;21003;-71
2022/06/28 04:21:21;;;;;;;0.00;0.00;;;17.50;99.90;;;;;;4980401;28;20451;-70
2022/06/28 04:23:49;;;;;;;0.00;0.00;;;17.60;99.90;;;;;;4981419;28;20919;-71
2022/06/28 04:26:18;;;;;;;0.00;0.00;;;17.60;99.90;;;;;;4971590;28;20829;-71
2022/06/28 04:28:46;;;;;;;0.00;0.00;;;17.70;99.90;;;;;;4980314;28;20441;-70
2022/06/28 04:31:15;;;;;;;0.00;0.00;;;17.70;99.90;;;;;;4979846;28;20815;-71
2022/06/28 04:33:43;;;;;;;0.00;0.00;;;17.80;99.90;;;;;;4980460;28;20786;-72
2022/06/28 04:36:11;;;;;;;0.00;0.00;;;17.80;99.90;;;;;;4981048;28;21110;-74
2022/06/28 04:38:39;;;;;;;0.00;0.00;;;17.90;99.90;;;;;;4982395;28;20452;-74
2022/06/28 04:41:07;;;;;;;0.00;0.00;;;18.00;99.90;;;;;;4985134;28;20529;-77
2022/06/28 04:43:36;;;;;;;0.00;0.00;;;18.20;99.90;;;;;;4981360;28;20441;-72
2022/06/28 04:46:04;;;;;;;0.00;0.00;;;18.30;99.90;;;;;;4980001;28;20823;-73
2022/06/28 04:48:32;;;;;;;0.00;0.00;;;18.40;99.90;;;;;;4980085;28;20489;-73
2022/06/28 04:51:10;;;;;;;0.00;0.00;;;18.50;99.90;;;;;;4980493;28;20438;-72
2022/06/28 04:53:40;;;;;;;0.00;0.00;;;18.60;99.90;;;;;;4980364;28;20434;-73
2022/06/28 04:56:08;;;;;;;0.00;0.00;;;18.60;99.90;;;;;;4979573;28;20551;-72
2022/06/28 04:58:38;;;;;;;0.00;0.00;;;18.60;99.90;;;;;;4979500;28;20469;-74
2022/06/28 05:01:06;;;;;;;0.00;0.00;;;18.60;99.90;;;;;;4980281;28;20450;-75
2022/06/28 05:03:42;;;;;;;0.00;0.00;;;18.60;99.90;;;;;;4980799;28;21084;-73
2022/06/28 05:06:10;;;;;;;0.00;0.00;;;18.60;99.90;;;;;;4979184;28;21024;-71
2022/06/28 05:08:38;;;;;;;0.00;0.00;;;18.70;99.90;;;;;;4979407;28;20974;-74
2022/06/28 05:11:07;;;;;;;0.00;0.00;;;18.70;99.90;;;;;;4979165;28;20810;-74
2022/06/28 05:13:36;;;;;;;0.00;0.00;;;18.60;99.90;;;;;;4981342;28;20442;-80
2022/06/28 05:16:05;;;;;;;0.00;0.00;;;18.70;99.90;;;;;;4980068;28;20561;-80
2022/06/28 05:18:33;;;;;;;0.00;0.00;;;18.60;99.90;;;;;;4979839;28;20460;-79
2022/06/28 05:21:01;;;;;;;0.00;0.00;;;18.60;99.90;;;;;;4980031;28;21038;-80
2022/06/28 05:23:29;;;;;;;0.00;0.00;;;18.60;99.90;;;;;;4979845;28;20578;-79
2022/06/28 05:25:57;;;;;;;0.00;0.00;;;18.60;99.90;;;;;;4980715;28;21131;-77
2022/06/28 05:28:25;;;;;;;0.00;0.00;;;18.50;99.90;;;;;;4981467;28;20453;-81
2022/06/28 05:30:53;;;;;;;0.00;0.00;;;18.50;99.90;;;;;;4981821;28;20439;-79
2022/06/28 05:33:23;;;;;;;0.00;0.00;;;18.40;99.90;;;;;;4981598;28;21003;-80
2022/06/28 05:35:51;;;;;;;0.00;0.00;;;18.30;99.90;;;;;;4982456;28;20965;-79
2022/06/28 05:38:19;;;;;;;0.00;0.00;;;18.30;99.90;;;;;;4982862;28;20549;-80
2022/06/28 05:40:47;;;;;;;0.00;0.00;;;18.30;99.90;;;;;;4983330;28;20458;-81
2022/06/28 05:43:15;;;;;;;0.00;0.00;;;18.30;99.90;;;;;;4983260;28;21054;-81
2022/06/28 05:45:42;;;;;;;0.00;0.00;;;18.20;99.90;;;;;;4983234;28;20461;-80
2022/06/28 05:48:10;;;;;;;0.00;0.00;;;18.20;99.90;;;;;;4994549;28;20451;-79
2022/06/28 05:50:39;;;;;;;0.00;0.00;;;18.10;99.90;;;;;;4988557;28;20445;-81
2022/06/28 05:53:07;;;;;;;0.00;0.00;;;18.10;99.90;;;;;;4985247;28;20530;-80
2022/06/28 05:55:35;;;;;;;0.00;0.00;;;18.10;99.90;;;;;;4984376;28;20485;-79
2022/06/28 05:58:03;;;;;;;0.00;0.00;;;18.20;99.90;;;;;;4983607;28;20470;-79
2022/06/28 06:00:33;;;;;;;0.00;0.00;;;18.20;99.90;;;;;;4990333;28;20788;-79
2022/06/28 06:03:01;;;;;;;0.00;0.00;;;18.30;99.90;;;;;;4987972;28;20439;-81
2022/06/28 06:05:29;;;;;;;0.00;0.00;;;18.30;99.90;;;;;;4989290;28;20824;-78
2022/06/28 06:07:58;;;;;;;0.00;0.00;;;18.30;99.90;;;;;;4981957;28;20462;-80
2022/06/28 06:10:26;;;;;;;0.00;0.00;;;18.50;99.90;;;;;;4983261;28;20702;-80
2022/06/28 06:12:54;;;;;;;0.00;0.00;;;18.50;99.90;;;;;;4983272;28;20469;-80
2022/06/28 06:15:22;;;;;;;0.00;0.00;;;18.60;99.90;;;;;;4983494;28;20554;-80
2022/06/28 06:17:50;;;;;;;0.00;0.00;;;18.80;99.90;;;;;;4985427;28;20555;-79
2022/06/28 06:20:18;;;;;;;0.00;0.00;;;19.00;99.90;;;;;;4982106;28;20502;-80
2022/06/28 06:22:47;;;;;;;0.00;0.00;;;19.20;99.90;;;;;;4981544;28;20685;-80
2022/06/28 06:25:17;;;;;;;0.00;0.00;;;19.50;99.90;;;;;;4982906;28;20489;-79
2022/06/28 06:27:46;;;;;;;0.00;0.00;;;19.70;99.90;;;;;;4982478;28;20990;-79
2022/06/28 06:30:14;;;;;;;0.00;0.00;;;20.00;99.90;;;;;;4981618;28;20939;-80
2022/06/28 06:32:42;;;;;;;0.00;0.00;;;20.00;99.90;;;;;;4983924;28;20467;-78
2022/06/28 06:35:10;;;;;;;0.00;0.00;;;19.90;99.90;;;;;;4964659;28;20578;-77
2022/06/28 06:37:38;;;;;;;0.00;0.00;;;19.80;99.90;;;;;;4968353;28;20710;-80
2022/06/28 06:40:30;;;;;;;0.00;0.00;;;19.70;99.90;;;;;;4987104;28;20542;-79
2022/06/28 06:42:58;;;;;;;0.00;0.00;;;19.50;99.90;;;;;;4988500;28;20486;-80
2022/06/28 06:45:28;;;;;;;0.00;0.00;;;19.40;99.90;;;;;;5001510;28;20537;-84
2022/06/28 06:47:56;;;;;;;0.00;0.00;;;19.30;99.90;;;;;;4985634;28;20911;-71
2022/06/28 06:50:24;;;;;;;0.00;0.00;;;19.30;99.90;;;;;;4992638;28;20529;-72
2022/06/28 06:52:52;;;;;;;0.00;0.00;;;19.20;99.90;;;;;;4981677;28;20721;-71
2022/06/28 06:55:20;;;;;;;0.00;0.00;;;19.10;99.90;;;;;;4981410;28;20532;-71
2022/06/28 06:57:49;;;;;;;0.00;0.00;;;18.90;99.90;;;;;;4982414;28;20491;-77
2022/06/28 07:00:18;;;;;;;0.00;0.00;;;19.00;99.90;;;;;;4982574;28;20478;-76
2022/06/28 07:02:46;;;;;;;0.00;0.00;;;19.10;99.90;;;;;;4981893;28;20933;-71
2022/06/28 07:05:14;;;;;;;0.00;0.00;;;19.20;99.90;;;;;;4974862;28;20481;-72
2022/06/28 07:07:42;;;;;;;0.00;0.00;;;19.30;99.90;;;;;;4971355;28;21036;-71
2022/06/28 07:10:10;;;;;;;0.00;0.00;;;19.40;99.90;;;;;;4981022;28;20438;-71
2022/06/28 07:12:45;;;;;;;0.00;0.00;;;19.40;99.90;;;;;;4974824;28;20545;-71
2022/06/28 07:15:14;;;;;;;0.00;0.00;;;19.60;99.90;;;;;;4969987;28;20567;-70
2022/06/28 07:21:23;;;;;;;0.00;0.00;;;19.70;99.90;;;;;;4964969;28;20566;-71
2022/06/28 07:23:51;;;;;;;0.00;0.00;;;19.70;99.90;;;;;;4970204;28;20454;-71
2022/06/28 07:26:19;;;;;;;0.00;0.00;;;19.70;99.90;;;;;;4979849;28;20462;-71
2022/06/28 07:28:47;;;;;;;0.00;0.00;;;19.60;99.90;;;;;;4981213;28;20449;-72
2022/06/28 07:31:16;;;;;;;0.00;0.00;;;19.60;99.90;;;;;;4981082;28;20509;-71
2022/06/28 07:33:44;;;;;;;0.00;0.00;;;19.60;99.90;;;;;;4981310;28;20454;-71
2022/06/28 07:36:13;;;;;;;0.00;0.00;;;19.70;99.90;;;;;;4981188;28;20485;-72
2022/06/28 07:38:40;;;;;;;0.00;0.00;;;19.80;99.90;;;;;;4981159;28;20973;-71
2022/06/28 07:41:08;;;;;;;0.00;0.00;;;19.90;99.90;;;;;;4982631;28;20442;-71
2022/06/28 07:43:36;;;;;;;0.00;0.00;;;20.00;99.90;;;;;;4988078;28;20648;-71
2022/06/28 07:46:05;;;;;;;0.00;0.00;;;20.10;99.90;;;;;;4982609;28;20790;-72
2022/06/28 07:48:34;;;;;;;0.00;0.00;;;19.90;99.90;;;;;;4981445;28;20449;-71
2022/06/28 07:53:48;;;;;;;0.00;0.00;;;19.90;99.90;;;;;;4986858;28;20659;-71
2022/06/28 07:56:16;;;;;;;0.00;0.00;;;19.90;99.90;;;;;;4981533;28;20974;-74
2022/06/28 07:58:44;;;;;;;0.00;0.00;;;20.10;99.90;;;;;;4980324;28;20445;-75
2022/06/28 08:01:11;;;;;;;0.00;0.00;;;20.10;99.90;;;;;;4982157;28;20454;-72
2022/06/28 08:03:41;;;;;;;0.00;0.00;;;20.30;99.90;;;;;;4983375;28;20897;-72
2022/06/28 08:06:09;;;;;;;0.00;0.00;;;20.40;99.90;;;;;;4982955;28;20538;-75
2022/06/28 08:08:37;;;;;;;0.00;0.00;;;20.40;99.90;;;;;;4982844;28;20450;-74
2022/06/28 08:11:04;;;;;;;0.00;0.00;;;20.50;99.90;;;;;;4982883;28;20439;-76
2022/06/28 08:13:32;;;;;;;0.00;0.00;;;20.60;99.90;;;;;;4988413;28;20954;-71
2022/06/28 08:16:01;;;;;;;0.00;0.00;;;20.50;99.90;;;;;;4989282;28;20455;-73
2022/06/28 08:18:29;;;;;;;0.00;0.00;;;20.30;99.90;;;;;;4986202;28;20470;-73
2022/06/28 08:20:58;;;;;;;0.00;0.00;;;20.10;99.90;;;;;;4981946;28;20447;-73
2022/06/28 08:23:26;;;;;;;0.00;0.00;;;20.00;99.90;;;;;;4971873;28;20439;-73
2022/06/28 08:25:54;;;;;;;0.00;0.00;;;20.00;99.90;;;;;;4978679;28;20518;-72
2022/06/28 08:28:22;;;;;;;0.00;0.00;;;20.00;99.90;;;;;;4979804;28;20723;-71
2022/06/28 08:30:50;;;;;;;0.00;0.00;;;20.00;99.90;;;;;;4972042;28;20454;-73
2022/06/28 08:33:18;;;;;;;0.00;0.00;;;19.90;99.90;;;;;;4980336;28;20427;-73
2022/06/28 08:35:46;;;;;;;0.00;0.00;;;19.70;99.90;;;;;;4980139;28;20443;-72
2022/06/28 08:38:15;;;;;;;0.00;0.00;;;19.70;99.90;;;;;;4980453;28;20500;-73
2022/06/28 08:40:45;;;;;;;0.00;0.00;;;19.80;99.90;;;;;;4980475;28;20443;-72
2022/06/28 08:43:13;;;;;;;0.00;0.00;;;20.00;99.90;;;;;;4980295;28;20449;-71
2022/06/28 08:45:42;;;;;;;0.00;0.00;;;20.20;99.90;;;;;;4980198;28;20443;-71
2022/06/28 08:48:21;;;;;;;0.00;0.00;;;20.40;99.90;;;;;;4980089;28;20466;-71
2022/06/28 08:50:52;;;;;;;0.00;0.00;;;20.60;99.90;;;;;;4980314;28;20465;-74
2022/06/28 08:53:23;;;;;;;0.00;0.00;;;20.70;99.90;;;;;;4980230;28;20965;-70
2022/06/28 08:55:52;;;;;;;0.00;0.00;;;20.80;99.90;;;;;;4980904;28;20446;-75
2022/06/28 08:58:20;;;;;;;0.00;0.00;;;20.70;99.90;;;;;;4980942;28;20482;-73
2022/06/28 09:00:48;;;;;;;0.00;0.00;;;20.70;99.90;;;;;;4979670;28;20809;-71
2022/06/28 09:03:49;;;;;;;0.00;0.00;;;20.70;99.90;;;;;;4979912;28;20546;-70
2022/06/28 09:06:19;;;;;;;0.00;0.00;;;20.80;99.90;;;;;;4981342;28;20557;-74
2022/06/28 09:08:49;;;;;;;0.00;0.00;;;20.90;99.90;;;;;;4982653;28;20455;-78
2022/06/28 09:11:17;;;;;;;0.00;0.00;;;20.90;99.90;;;;;;4984172;28;20435;-70
2022/06/28 09:13:45;;;;;;;0.00;0.00;;;20.90;99.90;;;;;;4975820;28;20443;-70
2022/06/28 09:16:13;;;;;;;0.00;0.00;;;20.80;99.90;;;;;;4990059;28;20485;-70
2022/06/28 09:18:47;;;;;;;0.00;0.00;;;20.80;99.90;;;;;;4980216;28;20541;-70
2022/06/28 09:21:16;;;;;;;0.00;0.00;;;20.90;99.90;;;;;;4978198;28;20538;-71
2022/06/28 09:23:46;;;;;;;0.00;0.00;;;21.00;99.90;;;;;;4981530;28;20755;-76
2022/06/28 09:26:17;;;;;;;0.00;0.00;;;21.00;99.90;;;;;;4982542;28;20462;-81
2022/06/28 09:28:47;;;;;;;0.00;0.00;;;20.90;99.90;;;;;;4984342;28;20441;-79
2022/06/28 09:31:20;;;;;;;0.00;0.00;;;21.00;99.90;;;;;;4976424;28;20891;-75
2022/06/28 09:34:02;;;;;;;0.00;0.00;;;21.00;99.90;;;;;;4967777;28;20469;-82
2022/06/28 09:36:32;;;;;;;0.00;0.00;;;21.00;99.90;;;;;;4987182;28;20828;-82
2022/06/28 09:39:11;;;;;;;0.00;0.00;;;21.10;99.90;;;;;;4985342;28;20460;-76
2022/06/28 09:41:44;;;;;;;0.00;0.00;;;21.20;99.90;;;;;;4975995;28;20466;-78
2022/06/28 09:44:33;;;;;;;0.00;0.00;;;21.30;99.90;;;;;;4975530;28;20704;-80
2022/06/28 09:47:02;;;;;;;0.00;0.00;;;21.40;99.90;;;;;;4972165;28;20471;-79
2022/06/28 09:49:32;;;;;;;0.00;0.00;;;21.50;99.90;;;;;;4981962;28;20470;-79
2022/06/28 09:52:05;;;;;;;0.00;0.00;;;21.50;99.90;;;;;;4982976;28;20937;-80
2022/06/28 09:54:38;;;;;;;0.00;0.00;;;21.60;99.90;;;;;;4973103;28;20453;-79
2022/06/28 09:57:10;;;;;;;0.00;0.00;;;21.70;99.90;;;;;;4981054;28;20524;-79
2022/06/28 09:59:39;;;;;;;0.00;0.00;;;21.80;99.90;;;;;;4980196;28;20462;-79
2022/06/28 10:02:13;;;;;;;0.00;0.00;;;21.80;99.90;;;;;;4980266;28;20800;-80
2022/06/28 10:04:42;;;;;;;0.00;0.00;;;22.00;99.90;;;;;;4983309;28;20960;-78
2022/06/28 10:07:15;;;;;;;0.00;0.00;;;21.90;99.90;;;;;;4980883;28;20468;-78
2022/06/28 10:09:44;;;;;;;0.00;0.00;;;21.80;99.90;;;;;;4983472;28;20515;-79
2022/06/28 10:15:04;;;;;;;0.00;0.00;;;21.90;99.90;;;;;;4985656;28;20445;-79
2022/06/28 10:17:45;;;;;;;0.00;0.00;;;22.00;99.90;;;;;;4986262;28;20532;-80
2022/06/28 10:20:18;;;;;;;0.00;0.00;;;22.10;99.90;;;;;;4985571;28;20456;-78
2022/06/28 10:22:47;;;;;;;0.00;0.00;;;22.30;99.90;;;;;;4982723;28;20474;-77
2022/06/28 10:25:17;;;;;;;0.00;0.00;;;22.40;99.90;;;;;;4978600;28;20474;-79
2022/06/28 10:27:48;;;;;;;0.00;0.00;;;22.60;99.90;;;;;;4979581;28;20542;-79
2022/06/28 10:30:25;;;;;;;0.00;0.00;;;22.70;99.90;;;;;;4977150;28;20445;-79
2022/06/28 10:32:56;;;;;;;0.00;0.00;;;22.80;99.90;;;;;;4976502;28;20520;-77
2022/06/28 10:36:03;;;;;;;0.00;0.00;;;22.80;99.90;;;;;;4977039;28;20471;-79
2022/06/28 10:38:32;;;;;;;0.00;0.00;;;22.80;99.90;;;;;;4977185;28;20488;-77
2022/06/28 10:41:15;;;;;;;0.00;0.00;;;22.80;99.90;;;;;;4979929;28;20454;-78
2022/06/28 10:43:50;;;;;;;0.00;0.00;;;22.80;99.90;;;;;;4979035;28;20449;-79
2022/06/28 10:46:18;;;;;;;0.00;0.00;;;23.00;99.90;;;;;;4978317;28;20457;-78
2022/06/28 10:49:07;;;;;;;0.00;0.00;;;23.10;99.90;;;;;;4979766;28;20465;-77
2022/06/28 10:51:37;;;;;;;0.00;0.00;;;23.30;99.90;;;;;;4980106;28;20462;-78
2022/06/28 10:54:07;;;;;;;0.00;0.00;;;23.30;99.90;;;;;;4977255;28;20523;-77
2022/06/28 10:56:41;;;;;;;0.00;0.00;;;23.40;99.90;;;;;;4977750;28;20451;-76
2022/06/28 10:59:13;;;;;;;0.00;0.00;;;23.50;99.90;;;;;;4982857;28;20475;-82
2022/06/28 11:01:55;;;;;;;0.00;0.00;;;23.50;99.90;;;;;;4985978;28;20439;-79
2022/06/28 11:04:28;;;;;;;0.00;0.00;;;23.50;99.90;;;;;;4979374;28;20431;-78
2022/06/28 11:06:59;;;;;;;0.00;0.00;;;23.50;99.90;;;;;;4982175;28;20490;-77
2022/06/28 11:09:53;;;;;;;0.00;0.00;;;23.40;99.90;;;;;;4983046;28;20485;-79
2022/06/28 11:12:36;;;;;;;0.00;0.00;;;23.40;99.90;;;;;;4973696;28;20564;-83
2022/06/28 11:15:07;;;;;;;0.00;0.00;;;23.40;99.90;;;;;;4979987;28;20545;-80
2022/06/28 11:17:36;;;;;;;0.00;0.00;;;23.50;99.90;;;;;;4979410;28;20562;-83
2022/06/28 11:20:07;;;;;;;0.00;0.00;;;23.60;99.90;;;;;;4975728;28;21009;-80
2022/06/28 11:22:40;;;;;;;0.00;0.00;;;23.50;99.90;;;;;;4972746;28;20496;-77
2022/06/28 11:25:10;;;;;;;0.00;0.00;;;23.50;99.90;;;;;;4972784;28;20464;-78
2022/06/28 11:27:44;;;;;;;0.00;0.00;;;23.60;99.90;;;;;;4974520;28;21017;-77
2022/06/28 11:30:15;;;;;;;0.00;0.00;;;23.60;99.90;;;;;;4977356;28;20463;-77
2022/06/28 11:32:48;;;;;;;0.00;0.00;;;23.70;99.90;;;;;;4978155;28;20560;-78
2022/06/28 11:35:18;;;;;;;0.00;0.00;;;23.80;99.90;;;;;;4964148;28;21030;-78
2022/06/28 11:37:50;;;;;;;0.00;0.00;;;23.90;99.90;;;;;;4973703;28;20479;-78
2022/06/28 11:40:19;;;;;;;0.00;0.00;;;23.80;99.90;;;;;;4981583;28;20502;-78
2022/06/28 11:42:48;;;;;;;0.00;0.00;;;23.70;99.90;;;;;;4984100;28;20486;-79
2022/06/28 11:45:18;;;;;;;0.00;0.00;;;23.80;99.90;;;;;;4982903;28;20486;-79
2022/06/28 11:47:46;;;;;;;0.00;0.00;;;23.90;99.90;;;;;;4982066;28;20454;-78
2022/06/28 11:50:17;;;;;;;0.00;0.00;;;23.90;99.90;;;;;;4978590;28;20965;-76
2022/06/28 11:52:47;;;;;;;0.00;0.00;;;23.90;99.90;;;;;;4967222;28;20460;-79
2022/06/28 11:55:15;;;;;;;0.00;0.00;;;23.90;99.90;;;;;;4964934;28;20462;-79
2022/06/28 11:57:44;;;;;;;0.00;0.00;;;24.00;99.90;;;;;;4963681;28;20562;-78
2022/06/28 12:00:14;;;;;;;0.00;0.00;;;24.10;99.90;;;;;;4965158;28;20478;-79
2022/06/28 12:02:52;;;;;;;0.00;0.00;;;24.20;99.90;;;;;;4971170;28;21107;-80
2022/06/28 12:05:31;;;;;;;0.00;0.00;;;24.40;99.90;;;;;;4982121;28;20883;-78
2022/06/28 12:08:00;;;;;;;0.00;0.00;;;24.50;99.90;;;;;;4981414;28;20489;-80
2022/06/28 12:10:30;;;;;;;0.00;0.00;;;24.60;99.90;;;;;;4982142;28;20463;-80
2022/06/28 12:12:59;;;;;;;0.00;0.00;;;24.70;99.90;;;;;;4982773;28;20482;-79
2022/06/28 12:15:30;;;;;;;0.00;0.00;;;24.70;99.90;;;;;;4980966;28;20459;-75
2022/06/28 12:25:13;;;;;;;0.00;0.00;;;24.50;99.90;;;;;;4977893;28;20475;-79
2022/06/28 12:27:41;;;;;;;0.00;0.00;;;24.40;99.90;;;;;;4969812;28;20526;-79
2022/06/28 12:30:10;;;;;;;0.00;0.00;;;24.30;99.90;;;;;;4964582;28;20458;-78
2022/06/28 12:32:37;;;;;;;0.00;0.00;;;24.20;99.90;;;;;;4979171;28;20499;-77
2022/06/28 12:35:18;;;;;;;0.00;0.00;;;24.00;99.90;;;;;;4977072;28;20447;-79
2022/06/28 12:37:46;;;;;;;0.00;0.00;;;23.80;99.90;;;;;;4979735;28;20703;-78
2022/06/28 12:40:14;;;;;;;0.00;0.00;;;23.70;99.90;;;;;;4982450;28;20827;-79
2022/06/28 12:42:43;;;;;;;0.00;0.00;;;23.90;99.90;;;;;;4982993;28;20513;-78
2022/06/28 12:48:58;;;;;;;0.00;0.00;;;24.30;99.90;;;;;;4984164;28;20524;-78
2022/06/28 12:59:03;;;;;;;0.00;0.00;;;24.50;99.90;;;;;;4993308;28;20560;-79
2022/06/28 13:02:05;;;;;;;0.00;0.00;;;24.50;99.90;;;;;;4994478;28;20500;-78
2022/06/28 13:04:33;;;;;;;0.00;0.00;;;24.50;99.90;;;;;;4969249;28;20445;-79
2022/06/28 13:07:01;;;;;;;0.00;0.00;;;24.50;99.90;;;;;;4967398;28;20550;-80
2022/06/28 13:17:06;;;;;;;0.00;0.00;;;24.50;99.90;;;;;;4964571;28;20418;-79
2022/06/28 13:19:34;;;;;;;0.00;0.00;;;24.60;99.90;;;;;;4963684;28;20482;-79
2022/06/28 13:22:02;;;;;;;0.00;0.00;;;24.80;99.90;;;;;;4962974;28;20439;-78
2022/06/28 13:24:30;;;;;;;0.00;0.00;;;24.90;99.90;;;;;;4962681;28;20506;-78
2022/06/28 13:26:58;;;;;;;0.00;0.00;;;25.10;99.60;;;;;;4962766;28;20562;-81
2022/06/28 13:29:26;;;;;;;0.00;0.00;;;25.20;99.90;;;;;;4963697;28;20447;-80
2022/06/28 13:31:54;;;;;;;0.00;0.00;;;25.20;99.90;;;;;;4961679;28;20940;-79
2022/06/28 13:34:23;;;;;;;0.00;0.00;;;25.10;99.60;;;;;;4978161;28;20435;-78
2022/06/28 13:36:51;;;;;;;0.00;0.00;;;25.00;99.60;;;;;;4981540;28;20550;-78
2022/06/28 13:39:19;;;;;;;0.00;0.00;;;25.00;99.80;;;;;;4988323;28;20481;-78
2022/06/28 13:45:35;;;;;;;0.00;0.00;;;24.90;99.90;;;;;;4990892;28;20448;-78
2022/06/28 13:51:33;;;;;;;0.00;0.00;;;24.80;99.90;;;;;;4983649;28;20441;-80
2022/06/28 13:54:01;;;;;;;0.00;0.00;;;24.70;99.40;;;;;;4980566;28;20446;-79
2022/06/28 13:56:30;;;;;;;0.00;0.00;;;24.60;99.90;;;;;;4980513;28;20469;-79
2022/06/28 13:58:58;;;;;;;0.00;0.00;;;24.50;99.90;;;;;;4980664;28;20487;-79
2022/06/28 14:01:25;;;;;;;0.00;0.00;;;24.60;99.90;;;;;;4980388;28;20573;-79
2022/06/28 14:03:53;;;;;;;0.00;0.00;;;24.60;99.90;;;;;;4979868;28;20438;-79
2022/06/28 14:06:21;;;;;;;0.00;0.00;;;24.60;99.90;;;;;;4980189;28;20465;-78